Time;durP1;ratioP1;P1;durP2;ratioP2;P2;SDS_P1;SDS_P2;PMS_P1;PMS_P2;Temp;Humidity;BMP_temperature;BMP_pressure;BME280_temperature;BME280_humidity;BME280_pressure;Samples;Min_cycle;Max_cycle;Signal;HPM_P1;HPM_P2
2022/03/28 00:00:38;;;;;;;10.80;8.73;;;;;;;8.47;97.73;101036.22;4977026;28;20285;-61
2022/03/28 00:03:05;;;;;;;9.90;8.53;;;;;;;8.51;97.18;101038.66;4984654;28;20235;-62
2022/03/28 00:05:30;;;;;;;10.77;9.67;;;;;;;8.43;97.99;101032.88;4973130;28;20635;-61
2022/03/28 00:07:56;;;;;;;11.17;10.07;;;;;;;8.32;98.62;101033.22;4973277;28;20233;-61
2022/03/28 00:10:21;;;;;;;11.17;9.53;;;;;;;8.28;100.00;101025.69;4965898;28;20262;-59
2022/03/28 00:12:46;;;;;;;9.47;8.47;;;;;;;8.35;100.00;101032.28;4986978;28;20284;-60
2022/03/28 00:15:12;;;;;;;11.43;9.73;;;;;;;8.32;100.00;101030.66;4974048;28;20262;-60
2022/03/28 00:17:38;;;;;;;10.93;9.90;;;;;;;8.26;100.00;101030.84;4990896;28;20186;-60
2022/03/28 00:20:09;;;;;;;14.33;9.00;;;;;;;8.23;100.00;101030.94;4963226;28;20211;-61
2022/03/28 00:22:35;;;;;;;10.27;9.27;;;;;;;8.20;100.00;101019.03;4977353;28;20205;-60
2022/03/28 00:25:00;;;;;;;11.37;9.37;;;;;;;8.13;100.00;101014.97;4993542;28;20626;-60
2022/03/28 00:27:26;;;;;;;10.60;9.50;;;;;;;8.16;100.00;101017.47;4993701;28;20260;-60
2022/03/28 00:29:51;;;;;;;10.00;9.00;;;;;;;8.10;100.00;101009.09;4992094;28;20709;-60
2022/03/28 00:32:16;;;;;;;10.53;9.50;;;;;;;8.03;100.00;101008.47;4982390;28;20237;-60
2022/03/28 00:34:42;;;;;;;11.47;9.40;;;;;;;7.97;100.00;101016.31;4993010;28;20607;-60
2022/03/28 00:37:07;;;;;;;12.37;9.40;;;;;;;7.90;100.00;101008.81;4982331;28;20270;-60
2022/03/28 00:39:32;;;;;;;11.10;9.77;;;;;;;7.83;100.00;101014.16;4981444;28;20208;-60
2022/03/28 00:41:58;;;;;;;10.70;9.60;;;;;;;7.83;100.00;101016.72;4981842;28;20679;-60
2022/03/28 00:44:23;;;;;;;11.57;10.47;;;;;;;7.82;100.00;101010.75;4993014;28;20183;-61
2022/03/28 00:46:48;;;;;;;10.70;9.63;;;;;;;7.76;100.00;101010.91;4993140;28;20233;-60
2022/03/28 00:49:15;;;;;;;13.00;9.53;;;;;;;7.72;100.00;101006.78;4992629;28;20534;-61
2022/03/28 00:51:40;;;;;;;10.07;9.07;;;;;;;7.67;100.00;101004.34;4982456;28;20225;-60
2022/03/28 00:54:06;;;;;;;11.80;9.97;;;;;;;7.69;100.00;101000.03;4971890;28;20221;-61
2022/03/28 00:56:33;;;;;;;10.77;9.50;;;;;;;7.62;100.00;101000.25;4972464;28;20185;-61
2022/03/28 00:58:58;;;;;;;10.33;9.33;;;;;;;7.62;100.00;101002.81;4991071;28;20183;-61
2022/03/28 01:01:26;;;;;;;11.53;10.43;;;;;;;7.59;100.00;101006.25;4965092;28;20632;-61
2022/03/28 01:03:51;;;;;;;10.80;9.43;;;;;;;7.56;100.00;101006.34;4971487;28;20479;-61
2022/03/28 01:06:17;;;;;;;12.23;10.53;;;;;;;7.48;100.00;101006.56;4973508;28;20205;-61
2022/03/28 01:08:42;;;;;;;10.27;9.10;;;;;;;7.48;100.00;101000.59;4972333;28;20225;-61
2022/03/28 01:11:09;;;;;;;11.03;9.50;;;;;;;7.38;100.00;100994.88;4971758;28;20798;-59
2022/03/28 01:13:36;;;;;;;10.80;9.67;;;;;;;7.37;100.00;100985.56;4979678;28;20526;-60
2022/03/28 01:16:02;;;;;;;13.80;10.03;;;;;;;7.40;100.00;100991.41;4971822;28;20577;-59
2022/03/28 01:18:28;;;;;;;12.70;10.13;;;;;;;7.32;100.00;100990.78;4971871;28;20578;-60
2022/03/28 01:20:58;;;;;;;10.83;9.73;;;;;;;7.30;100.00;100991.72;4965077;28;20328;-60
2022/03/28 01:23:23;;;;;;;16.10;10.33;;;;;;;7.17;100.00;100979.25;4986760;28;20273;-60
2022/03/28 01:25:53;;;;;;;12.03;10.60;;;;;;;7.11;100.00;100972.56;4973326;28;20371;-60
2022/03/28 01:28:20;;;;;;;16.57;11.53;;;;;;;7.11;100.00;100977.66;4973327;28;20187;-61
2022/03/28 01:30:47;;;;;;;12.57;10.20;;;;;;;7.13;100.00;100971.69;4964928;28;20268;-60
2022/03/28 01:33:12;;;;;;;13.00;11.67;;;;;;;7.14;100.00;100965.69;4971222;28;20273;-59
2022/03/28 01:35:40;;;;;;;14.00;11.50;;;;;;;7.17;100.00;100965.59;4991561;28;20292;-60
2022/03/28 01:38:08;;;;;;;17.87;11.47;;;;;;;7.20;100.00;100968.09;4990043;28;20242;-60
2022/03/28 01:40:36;;;;;;;14.37;12.50;;;;;;;7.19;100.00;100964.66;4965752;28;20228;-60
2022/03/28 01:43:02;;;;;;;13.40;11.90;;;;;;;7.17;100.00;100968.16;4977474;28;20175;-59
2022/03/28 01:45:28;;;;;;;13.47;11.73;;;;;;;7.07;100.00;100958.16;4990679;28;20181;-59
2022/03/28 01:47:54;;;;;;;13.07;11.20;;;;;;;7.01;100.00;100960.03;4991750;28;20197;-60
2022/03/28 01:50:20;;;;;;;12.47;11.10;;;;;;;6.85;100.00;100962.16;4983234;28;20206;-60
2022/03/28 01:52:46;;;;;;;15.50;11.10;;;;;;;6.93;100.00;100957.69;5005140;28;20204;-60
2022/03/28 01:55:12;;;;;;;13.50;11.47;;;;;;;6.95;100.00;100956.75;4991835;28;20172;-60
2022/03/28 01:57:39;;;;;;;12.67;11.37;;;;;;;6.93;100.00;100953.41;4992266;28;20194;-60
2022/03/28 02:00:10;;;;;;;12.13;10.93;;;;;;;6.76;100.00;100948.72;4980334;28;20184;-61
2022/03/28 02:02:36;;;;;;;11.87;10.57;;;;;;;6.85;100.00;100952.75;4975697;28;20235;-60
2022/03/28 02:05:01;;;;;;;13.03;11.43;;;;;;;6.79;100.00;100947.81;4992010;28;20252;-60
2022/03/28 02:07:27;;;;;;;12.37;11.07;;;;;;;6.68;100.00;100953.19;4990864;28;20206;-60
2022/03/28 02:09:52;;;;;;;14.07;10.87;;;;;;;6.68;100.00;100957.47;4991786;28;20177;-60
2022/03/28 02:12:17;;;;;;;12.17;10.80;;;;;;;6.72;100.00;100956.50;4982046;28;20314;-60
2022/03/28 02:14:43;;;;;;;14.03;11.07;;;;;;;6.72;100.00;100952.25;4994645;28;20625;-60
2022/03/28 02:17:08;;;;;;;11.40;10.07;;;;;;;6.62;100.00;100948.22;4996235;28;20171;-60
2022/03/28 02:19:34;;;;;;;12.13;10.93;;;;;;;6.60;100.00;100950.00;4996397;28;20191;-61
2022/03/28 02:21:59;;;;;;;13.50;10.07;;;;;;;6.55;100.00;100946.69;4971577;28;20674;-60
2022/03/28 02:24:25;;;;;;;12.97;11.07;;;;;;;6.49;100.00;100949.38;4995320;28;20206;-61
2022/03/28 02:26:50;;;;;;;12.60;10.43;;;;;;;6.42;100.00;100944.41;4995807;28;20324;-61
2022/03/28 02:29:15;;;;;;;13.23;11.00;;;;;;;6.44;100.00;100946.97;4995850;28;20230;-60
2022/03/28 02:31:41;;;;;;;12.60;11.13;;;;;;;6.45;100.00;100943.53;4998178;28;20302;-60
2022/03/28 02:34:06;;;;;;;10.57;9.27;;;;;;;6.44;100.00;100940.13;4997330;28;20309;-59
2022/03/28 02:36:31;;;;;;;12.07;10.50;;;;;;;6.42;100.00;100944.41;4994875;28;20538;-60
2022/03/28 02:38:56;;;;;;;11.83;10.17;;;;;;;6.35;100.00;100936.94;4995719;28;20183;-61
2022/03/28 02:41:22;;;;;;;11.50;10.30;;;;;;;6.34;100.00;100936.09;4972858;28;20636;-59
2022/03/28 02:43:48;;;;;;;12.10;10.80;;;;;;;6.26;100.00;100931.19;4975253;28;20234;-60
2022/03/28 02:46:13;;;;;;;13.83;11.33;;;;;;;6.32;100.00;100930.19;4974683;28;20240;-59
2022/03/28 02:48:38;;;;;;;12.47;11.20;;;;;;;6.31;100.00;100931.06;4976079;28;20176;-60
2022/03/28 02:51:04;;;;;;;11.93;10.73;;;;;;;6.24;100.00;100922.72;4965983;28;20227;-61
2022/03/28 02:53:29;;;;;;;11.37;10.27;;;;;;;6.17;100.00;100928.81;4980488;28;20193;-61
2022/03/28 02:55:54;;;;;;;14.93;11.90;;;;;;;6.17;100.00;100930.56;4975824;28;20184;-61
2022/03/28 02:58:19;;;;;;;17.07;11.57;;;;;;;6.18;100.00;100925.41;4975797;28;20251;-62
2022/03/28 03:00:45;;;;;;;14.73;10.83;;;;;;;6.13;100.00;100922.13;4952105;28;20299;-61
2022/03/28 03:03:10;;;;;;;12.03;10.80;;;;;;;6.12;100.00;100923.81;4974578;28;20223;-61
2022/03/28 03:05:35;;;;;;;12.30;10.50;;;;;;;6.11;100.00;100911.09;4974611;28;20193;-62
2022/03/28 03:08:01;;;;;;;11.53;10.43;;;;;;;6.01;100.00;100920.66;4975539;28;20581;-61
2022/03/28 03:10:26;;;;;;;12.97;11.47;;;;;;;5.98;100.00;100919.03;4969088;28;20231;-61
2022/03/28 03:12:51;;;;;;;12.73;11.43;;;;;;;5.96;100.00;100912.25;4987350;28;20532;-61
2022/03/28 03:15:17;;;;;;;14.87;11.37;;;;;;;5.97;100.00;100913.94;4967112;28;20180;-61
2022/03/28 03:17:43;;;;;;;11.97;10.67;;;;;;;6.00;100.00;100907.94;4988599;28;20180;-60
2022/03/28 03:20:09;;;;;;;14.13;11.97;;;;;;;6.01;100.00;100907.91;4964797;28;20908;-61
2022/03/28 03:22:34;;;;;;;14.77;11.57;;;;;;;5.97;100.00;100901.16;4978101;28;20194;-61
2022/03/28 03:24:59;;;;;;;14.93;12.30;;;;;;;5.86;100.00;100898.00;4993508;28;20180;-61
2022/03/28 03:27:24;;;;;;;12.57;11.27;;;;;;;5.79;100.00;100895.59;4993398;28;20230;-60
2022/03/28 03:29:51;;;;;;;13.67;12.03;;;;;;;5.81;100.00;100893.00;4988131;28;20203;-61
2022/03/28 03:32:18;;;;;;;15.53;12.20;;;;;;;5.79;100.00;100893.03;4950808;28;20758;-61
2022/03/28 03:34:43;;;;;;;17.53;12.33;;;;;;;5.81;100.00;100895.53;4992390;28;20241;-61
2022/03/28 03:37:08;;;;;;;13.57;12.13;;;;;;;5.82;100.00;100894.69;4994668;28;20183;-61
2022/03/28 03:39:35;;;;;;;15.80;12.87;;;;;;;5.77;100.00;100891.41;4977726;28;20693;-62
2022/03/28 03:42:01;;;;;;;12.87;11.53;;;;;;;5.74;100.00;100882.09;4951449;28;20644;-61
2022/03/28 03:44:26;;;;;;;14.43;12.13;;;;;;;5.70;100.00;100885.56;4974525;28;20199;-62
2022/03/28 03:46:51;;;;;;;16.07;12.70;;;;;;;5.72;100.00;100885.53;4975157;28;20385;-61
2022/03/28 03:49:16;;;;;;;14.33;12.33;;;;;;;5.71;100.00;100894.91;4973781;28;20331;-61
2022/03/28 03:51:42;;;;;;;13.67;12.07;;;;;;;5.67;100.00;100890.75;4980742;28;20219;-61
2022/03/28 03:54:08;;;;;;;14.83;12.17;;;;;;;5.71;100.00;100887.25;4993057;28;20183;-62
2022/03/28 03:56:34;;;;;;;16.67;12.30;;;;;;;5.63;100.00;100891.66;4995012;28;20195;-62
2022/03/28 03:58:59;;;;;;;14.73;12.50;;;;;;;5.57;100.00;100894.34;5005327;28;20183;-62
2022/03/28 04:01:26;;;;;;;15.70;12.77;;;;;;;5.55;100.00;100891.00;5002807;28;20644;-62
2022/03/28 04:03:55;;;;;;;16.53;12.73;;;;;;;5.50;100.00;100889.38;5012872;28;20210;-61
2022/03/28 04:06:20;;;;;;;15.40;12.73;;;;;;;5.47;100.00;100889.44;5013664;28;20199;-62
2022/03/28 04:08:46;;;;;;;12.87;11.57;;;;;;;5.52;100.00;100888.50;5013763;28;20198;-61
2022/03/28 04:11:12;;;;;;;15.10;12.53;;;;;;;5.46;100.00;100881.84;5002902;28;20661;-61
2022/03/28 04:13:37;;;;;;;16.27;12.47;;;;;;;5.38;100.00;100886.25;5012511;28;20179;-61
2022/03/28 04:16:04;;;;;;;15.30;11.87;;;;;;;5.37;100.00;100876.91;5013094;28;20373;-60
2022/03/28 04:18:30;;;;;;;12.67;11.40;;;;;;;5.33;100.00;100881.22;5013650;28;20266;-61
2022/03/28 04:20:55;;;;;;;13.23;11.93;;;;;;;5.33;100.00;100879.53;5002708;28;20266;-61
2022/03/28 04:23:24;;;;;;;14.60;12.37;;;;;;;5.33;100.00;100871.03;4986218;28;20635;-60
2022/03/28 04:25:49;;;;;;;16.07;12.80;;;;;;;5.25;100.00;100873.72;4992141;28;20190;-61
2022/03/28 04:28:15;;;;;;;14.23;12.17;;;;;;;5.18;100.00;100872.16;4973126;28;20551;-61
2022/03/28 04:30:40;;;;;;;15.57;12.07;;;;;;;5.19;100.00;100863.66;4995162;28;20265;-61
2022/03/28 04:33:09;;;;;;;12.60;11.37;;;;;;;5.10;100.00;100867.22;5003695;28;20187;-61
2022/03/28 04:35:34;;;;;;;15.20;12.30;;;;;;;5.11;100.00;100874.00;4987511;28;20226;-61
2022/03/28 04:38:02;;;;;;;18.63;12.30;;;;;;;5.17;100.00;100863.69;4973581;28;20211;-62
2022/03/28 04:40:28;;;;;;;15.20;12.20;;;;;;;5.13;100.00;100867.16;4963900;28;20224;-60
2022/03/28 04:42:53;;;;;;;14.27;12.40;;;;;;;5.08;100.00;100865.56;4972810;28;20245;-65
2022/03/28 04:45:18;;;;;;;17.80;12.37;;;;;;;5.03;100.00;100867.38;4974232;28;20246;-61
2022/03/28 04:47:44;;;;;;;15.60;12.80;;;;;;;5.05;100.00;100874.13;4978011;28;20658;-62
2022/03/28 04:50:10;;;;;;;14.23;11.50;;;;;;;5.06;100.00;100865.63;4981873;28;20517;-61
2022/03/28 04:52:36;;;;;;;16.63;13.13;;;;;;;5.10;100.00;100869.78;4977067;28;20182;-62
2022/03/28 04:55:03;;;;;;;15.13;12.33;;;;;;;5.10;100.00;100869.78;4991434;28;20183;-62
2022/03/28 04:57:28;;;;;;;16.80;12.50;;;;;;;5.13;100.00;100868.88;4991710;28;20188;-62
2022/03/28 04:59:54;;;;;;;21.73;12.03;;;;;;;5.11;100.00;100879.13;4992053;28;20643;-63
2022/03/28 05:02:20;;;;;;;14.83;11.27;;;;;;;5.09;100.00;100873.19;4998461;28;20245;-62
2022/03/28 05:04:45;;;;;;;15.67;12.40;;;;;;;5.12;100.00;100865.50;4991464;28;20190;-61
2022/03/28 05:07:10;;;;;;;14.13;12.57;;;;;;;5.12;100.00;100868.03;4993016;28;20195;-61
2022/03/28 05:09:36;;;;;;;14.40;12.50;;;;;;;5.10;100.00;100863.84;4993072;28;20549;-61
2022/03/28 05:12:01;;;;;;;14.23;11.97;;;;;;;5.15;100.00;100867.97;4997831;28;20286;-62
2022/03/28 05:14:26;;;;;;;15.47;13.87;;;;;;;5.10;100.00;100867.22;4993058;28;20259;-62
2022/03/28 05:16:52;;;;;;;14.40;12.07;;;;;;;5.05;100.00;100865.63;4992999;28;20539;-61
2022/03/28 05:19:17;;;;;;;16.70;13.07;;;;;;;5.05;100.00;100869.03;4991636;28;20567;-62
2022/03/28 05:21:42;;;;;;;16.17;12.50;;;;;;;5.04;100.00;100872.44;4995780;28;20347;-62
2022/03/28 05:24:08;;;;;;;14.43;12.93;;;;;;;5.08;100.00;100874.06;4994749;28;20653;-61
2022/03/28 05:26:33;;;;;;;15.10;12.17;;;;;;;5.08;100.00;100873.22;4992902;28;20692;-62
2022/03/28 05:28:58;;;;;;;15.00;13.33;;;;;;;5.11;100.00;100876.56;4990817;28;20276;-61
2022/03/28 05:31:24;;;;;;;15.23;12.57;;;;;;;5.15;100.00;100875.63;4981897;28;20297;-62
2022/03/28 05:33:50;;;;;;;15.43;12.30;;;;;;;5.20;100.00;100875.53;4991606;28;20647;-62
2022/03/28 05:36:16;;;;;;;16.40;13.07;;;;;;;5.23;100.00;100866.97;4992937;28;20179;-61
2022/03/28 05:38:42;;;;;;;16.97;13.27;;;;;;;5.17;100.00;100866.25;4991126;28;20184;-61
2022/03/28 05:41:08;;;;;;;16.23;13.27;;;;;;;5.30;100.00;100871.09;4984270;28;20282;-60
2022/03/28 05:43:34;;;;;;;18.57;12.57;;;;;;;5.43;100.00;100871.69;4990727;28;20519;-61
2022/03/28 05:46:00;;;;;;;14.43;12.77;;;;;;;5.45;100.00;100872.50;4983445;28;20284;-62
2022/03/28 05:48:25;;;;;;;16.87;12.13;;;;;;;5.54;100.00;100867.19;4972876;28;20267;-61
2022/03/28 05:50:51;;;;;;;14.37;12.87;;;;;;;5.59;100.00;100867.91;4963001;28;20240;-60
2022/03/28 05:53:16;;;;;;;20.87;14.33;;;;;;;5.68;100.00;100871.16;4987139;28;20516;-60
2022/03/28 05:55:42;;;;;;;22.43;14.60;;;;;;;5.77;100.00;100864.13;4992514;28;20183;-60
2022/03/28 05:58:08;;;;;;;25.07;14.07;;;;;;;5.86;100.00;100862.25;4990656;28;20596;-60
2022/03/28 06:00:35;;;;;;;27.70;16.67;;;;;;;5.93;100.00;100862.06;4984004;28;20241;-61
2022/03/28 06:03:00;;;;;;;26.03;15.97;;;;;;;6.11;100.00;100865.09;5002774;28;20223;-60
2022/03/28 06:05:25;;;;;;;27.77;15.77;;;;;;;6.12;100.00;100861.69;4992719;28;20233;-61
2022/03/28 06:07:51;;;;;;;34.60;15.73;;;;;;;6.31;100.00;100862.06;4992098;28;20199;-62
2022/03/28 06:10:16;;;;;;;28.00;16.00;;;;;;;6.41;100.00;100863.53;4982354;28;20250;-59
2022/03/28 06:12:42;;;;;;;22.97;15.00;;;;;;;6.52;100.00;100863.25;4990912;28;20264;-59
2022/03/28 06:15:08;;;;;;;21.60;15.67;;;;;;;6.66;100.00;100862.91;4990370;28;20191;-59
2022/03/28 06:17:33;;;;;;;23.73;15.83;;;;;;;6.78;100.00;100865.16;4992121;28;20929;-60
2022/03/28 06:20:01;;;;;;;18.87;15.00;;;;;;;6.94;100.00;100867.28;5005768;28;20254;-61
2022/03/28 06:22:27;;;;;;;20.23;15.10;;;;;;;7.07;100.00;100865.22;4977870;28;20214;-61
2022/03/28 06:24:52;;;;;;;21.67;14.70;;;;;;;7.21;100.00;100857.16;5002936;28;20263;-61
2022/03/28 06:27:23;;;;;;;19.93;14.27;;;;;;;7.25;100.00;100871.56;4998619;28;20199;-60
2022/03/28 06:29:49;;;;;;;16.00;14.23;;;;;;;7.33;100.00;100867.06;5004325;28;20250;-63
2022/03/28 06:32:14;;;;;;;19.57;13.43;;;;;;;7.43;100.00;100863.34;4982747;28;20719;-61
2022/03/28 06:34:39;;;;;;;17.83;14.30;;;;;;;7.59;100.00;100855.19;5007963;28;20251;-61
2022/03/28 06:37:05;;;;;;;16.40;14.53;;;;;;;7.71;100.00;100854.81;5011235;28;20232;-61
2022/03/28 06:39:30;;;;;;;16.87;14.47;;;;;;;8.01;100.00;100852.22;5009610;28;20242;-61
2022/03/28 06:41:55;;;;;;;18.13;14.17;;;;;;;8.27;100.00;100853.06;4987030;28;20257;-61
2022/03/28 06:44:21;;;;;;;16.43;12.83;;;;;;;8.48;99.38;100854.13;5002000;28;20525;-62
2022/03/28 06:46:46;;;;;;;15.77;13.87;;;;;;;8.67;97.53;100848.38;5007802;28;20199;-62
2022/03/28 06:49:11;;;;;;;17.70;12.20;;;;;;;9.02;95.73;100847.13;5005117;28;20619;-60
2022/03/28 06:51:37;;;;;;;15.63;13.20;;;;;;;10.01;89.53;100842.56;4987279;28;20230;-61
2022/03/28 06:54:08;;;;;;;14.30;12.67;;;;;;;11.03;81.15;100845.19;5003923;28;20178;-62
2022/03/28 06:56:34;;;;;;;13.77;11.80;;;;;;;12.22;74.16;100842.25;5007823;28;20179;-61
2022/03/28 06:59:00;;;;;;;14.70;10.37;;;;;;;14.13;63.89;100830.41;5003137;28;20183;-61
2022/03/28 07:01:25;;;;;;;13.77;10.97;;;;;;;14.84;56.77;100839.19;4974550;28;20709;-63
2022/03/28 07:03:50;;;;;;;11.40;10.30;;;;;;;15.28;54.67;100840.78;4983095;28;20190;-64
2022/03/28 07:06:16;;;;;;;15.87;10.20;;;;;;;15.54;53.34;100833.13;5014080;28;20206;-65
2022/03/28 07:08:41;;;;;;;13.00;10.53;;;;;;;15.81;52.20;100838.31;5014903;28;20253;-64
2022/03/28 07:11:06;;;;;;;11.93;9.47;;;;;;;16.84;49.20;100831.53;5002929;28;20226;-65
2022/03/28 07:13:32;;;;;;;14.10;9.87;;;;;;;17.81;46.30;100835.09;5002013;28;20174;-65
2022/03/28 07:15:57;;;;;;;14.80;9.67;;;;;;;17.53;46.53;100834.47;5003148;28;20218;-65
2022/03/28 07:18:23;;;;;;;11.27;9.70;;;;;;;16.68;48.46;100835.19;5013035;28;20189;-65
2022/03/28 07:20:50;;;;;;;11.57;9.63;;;;;;;16.98;48.99;100838.41;4992779;28;20249;-66
2022/03/28 07:23:17;;;;;;;10.57;9.67;;;;;;;16.37;48.94;100829.50;4990381;28;20221;-64
2022/03/28 07:25:43;;;;;;;10.77;9.53;;;;;;;16.70;48.50;100817.72;4998974;28;20182;-65
2022/03/28 07:28:12;;;;;;;11.47;10.20;;;;;;;16.53;50.37;100825.84;5005874;28;20982;-65
2022/03/28 07:30:37;;;;;;;14.07;10.13;;;;;;;16.33;50.61;100822.03;4978094;28;20223;-65
2022/03/28 07:33:04;;;;;;;12.80;10.07;;;;;;;17.25;48.58;100822.63;4975617;28;20181;-66
2022/03/28 07:35:31;;;;;;;11.27;10.07;;;;;;;18.82;44.88;100827.56;5009271;28;20179;-64
2022/03/28 07:37:57;;;;;;;10.87;9.87;;;;;;;20.00;42.58;100813.84;4983509;28;20175;-66
2022/03/28 07:40:22;;;;;;;10.90;9.80;;;;;;;21.10;39.78;100815.84;4980971;28;20219;-67
2022/03/28 07:42:47;;;;;;;11.07;9.63;;;;;;;21.14;39.00;100821.63;4993635;28;20258;-66
2022/03/28 07:45:14;;;;;;;10.40;9.37;;;;;;;20.90;40.03;100822.81;4994967;28;20557;-66
2022/03/28 07:47:40;;;;;;;10.43;9.43;;;;;;;20.74;40.20;100820.69;5010437;28;20209;-66
2022/03/28 07:50:05;;;;;;;10.93;9.83;;;;;;;19.44;43.39;100820.94;5002637;28;20183;-65
2022/03/28 07:52:32;;;;;;;10.50;9.60;;;;;;;21.05;40.69;100814.56;4995336;28;20536;-63
2022/03/28 07:54:57;;;;;;;11.43;10.23;;;;;;;21.89;38.95;100811.47;5010011;28;20618;-65
2022/03/28 07:57:23;;;;;;;11.30;10.30;;;;;;;22.78;36.66;100811.22;5010459;28;20179;-67
2022/03/28 07:59:48;;;;;;;11.77;10.57;;;;;;;21.86;37.62;100803.88;5013166;28;20182;-66
2022/03/28 08:02:15;;;;;;;12.97;10.03;;;;;;;21.58;38.35;100809.03;4993512;28;20833;-65
2022/03/28 08:04:43;;;;;;;14.57;10.55;;;;;;;22.93;36.54;100809.72;5009703;28;20177;-66
2022/03/28 08:07:09;;;;;;;11.32;9.65;;;;;;;23.96;34.63;100804.09;5011537;28;20256;-67
2022/03/28 08:09:38;;;;;;;9.48;8.68;;;;;;;23.43;33.91;100807.63;5009601;28;20599;-67
2022/03/28 08:12:05;;;;;;;10.30;9.25;;;;;;;23.22;34.88;100800.88;4999918;28;20225;-66
2022/03/28 08:14:30;;;;;;;10.20;9.10;;;;;;;24.14;33.16;100795.38;5007988;28;20669;-66
2022/03/28 08:16:56;;;;;;;10.65;9.60;;;;;;;22.80;35.63;100807.47;5010417;28;20172;-64
2022/03/28 08:19:22;;;;;;;10.52;9.50;;;;;;;22.22;36.55;100798.03;4996514;28;20589;-65
2022/03/28 08:21:47;;;;;;;9.73;8.82;;;;;;;22.08;36.87;100801.94;4969253;28;20246;-65
2022/03/28 08:24:13;;;;;;;14.70;9.38;;;;;;;23.51;34.17;100791.94;4992835;28;20273;-64
2022/03/28 08:26:38;;;;;;;10.10;9.00;;;;;;;23.28;34.52;100786.31;5001236;28;20293;-64
2022/03/28 08:29:04;;;;;;;10.88;9.88;;;;;;;23.69;33.84;100786.66;5009934;28;20186;-66
2022/03/28 08:31:30;;;;;;;10.63;9.52;;;;;;;24.06;33.43;100782.97;5002362;28;20241;-67
2022/03/28 08:33:55;;;;;;;10.48;9.57;;;;;;;24.83;31.90;100779.53;5006586;28;20171;-69
2022/03/28 08:36:21;;;;;;;9.57;8.77;;;;;;;24.94;30.73;100786.31;5012729;28;20175;-67
2022/03/28 08:38:47;;;;;;;10.40;9.45;;;;;;;22.87;34.29;100784.94;5004174;28;20184;-67
2022/03/28 08:41:14;;;;;;;9.90;8.95;;;;;;;22.47;35.17;100785.28;4991543;28;20621;-67
2022/03/28 08:43:40;;;;;;;9.40;8.60;;;;;;;21.58;36.72;100776.78;5011540;28;20198;-67
2022/03/28 08:46:08;;;;;;;11.13;10.07;;;;;;;21.18;37.83;100775.91;4992963;28;20596;-67
2022/03/28 08:48:39;;;;;;;10.50;9.27;;;;;;;21.01;39.27;100772.19;4993317;28;20182;-69
2022/03/28 08:51:04;;;;;;;11.20;10.20;;;;;;;22.18;37.12;100773.91;4991342;28;20230;-68
2022/03/28 08:53:30;;;;;;;12.47;9.90;;;;;;;23.28;34.94;100775.81;4988199;28;20721;-68
2022/03/28 08:55:55;;;;;;;11.33;9.80;;;;;;;25.14;31.01;100771.03;4987937;28;20437;-67
2022/03/28 08:58:21;;;;;;;10.82;9.15;;;;;;;25.95;29.85;100771.19;4973526;28;20180;-67
2022/03/28 09:00:47;;;;;;;11.57;9.52;;;;;;;27.03;28.52;100775.03;4971216;28;20711;-68
2022/03/28 09:03:12;;;;;;;10.65;9.65;;;;;;;28.32;26.37;100771.53;4992586;28;20220;-68
2022/03/28 09:05:39;;;;;;;10.13;9.20;;;;;;;29.06;25.65;100767.09;4976368;28;21482;-65
2022/03/28 09:08:07;;;;;;;10.82;9.30;;;;;;;29.05;25.35;100776.03;4973477;28;20203;-69
2022/03/28 09:10:35;;;;;;;10.88;9.77;;;;;;;27.20;27.57;100770.47;4996583;28;20266;-66
2022/03/28 09:13:02;;;;;;;11.65;10.50;;;;;;;28.63;26.24;100767.03;5022137;28;20183;-67
2022/03/28 09:16:09;;;;;;;11.10;10.20;;;;;;;30.61;23.64;100766.22;4999494;28;20425;-67
2022/03/28 09:18:35;;;;;;;11.95;10.80;;;;;;;28.26;26.14;100763.53;4990867;28;20578;-68
2022/03/28 09:21:06;;;;;;;12.93;11.57;;;;;;;28.94;26.31;100758.81;4989027;28;20237;-69
2022/03/28 09:23:38;;;;;;;11.55;10.52;;;;;;;29.59;24.55;100750.78;4987324;28;20183;-68
2022/03/28 09:26:18;;;;;;;11.35;10.27;;;;;;;30.09;24.15;100745.41;4971570;28;20212;-69
2022/03/28 09:28:49;;;;;;;12.18;10.82;;;;;;;28.96;26.03;100748.03;4974001;28;20176;-69
2022/03/28 09:31:38;;;;;;;12.95;11.63;;;;;;;27.66;27.77;100740.53;4955218;28;20450;-67
2022/03/28 09:34:12;;;;;;;14.73;13.38;;;;;;;26.52;29.43;100743.81;4972433;28;20267;-65
2022/03/28 09:36:56;;;;;;;13.20;12.00;;;;;;;28.00;27.37;100741.00;4983850;28;20179;-66
2022/03/28 09:39:27;;;;;;;13.48;12.23;;;;;;;27.88;27.41;100730.06;4992814;28;20234;-67
2022/03/28 09:42:03;;;;;;;14.10;10.68;;;;;;;26.49;29.24;100728.31;4981278;28;20577;-66
2022/03/28 09:44:46;;;;;;;13.65;10.98;;;;;;;26.92;29.05;100721.81;4999828;28;20275;-65
2022/03/28 09:47:22;;;;;;;14.10;12.80;;;;;;;28.34;26.64;100714.00;4973083;28;20941;-58
2022/03/28 09:49:49;;;;;;;13.48;12.00;;;;;;;28.65;27.04;100712.06;4973056;28;20172;-67
2022/03/28 09:52:17;;;;;;;13.88;12.48;;;;;;;29.90;26.32;100707.16;4954378;28;20240;-67
2022/03/28 09:54:55;;;;;;;13.75;12.55;;;;;;;30.46;24.51;100709.81;4991779;28;20555;-66
2022/03/28 09:57:33;;;;;;;11.93;10.93;;;;;;;29.38;26.01;100701.31;4990725;28;20179;-67
2022/03/28 10:00:13;;;;;;;13.63;12.38;;;;;;;28.49;27.23;100706.00;4992381;28;20168;-65
2022/03/28 10:02:38;;;;;;;12.85;11.75;;;;;;;29.23;26.29;100700.59;4980968;28;20266;-66
2022/03/28 10:05:05;;;;;;;13.73;11.70;;;;;;;28.88;26.58;100689.94;4990526;28;20241;-67
2022/03/28 10:07:31;;;;;;;14.30;11.15;;;;;;;27.93;28.74;100687.22;4992540;28;20238;-67
2022/03/28 10:09:58;;;;;;;13.32;11.52;;;;;;;28.27;28.03;100683.16;4992137;28;20532;-66
2022/03/28 10:12:24;;;;;;;11.88;10.88;;;;;;;28.35;28.17;100680.41;4994408;28;20307;-64
2022/03/28 10:14:54;;;;;;;14.65;10.75;;;;;;;28.71;27.42;100674.28;5004946;28;20219;-66
2022/03/28 10:17:19;;;;;;;14.18;10.95;;;;;;;25.18;31.71;100667.09;5000306;28;20241;-67
2022/03/28 10:19:46;;;;;;;13.07;11.00;;;;;;;27.79;28.56;100663.25;5006932;28;20210;-66
2022/03/28 10:22:15;;;;;;;12.02;10.93;;;;;;;26.80;29.12;100661.53;4973524;28;20223;-67
2022/03/28 10:24:43;;;;;;;11.77;10.57;;;;;;;26.37;30.21;100655.88;5003679;28;20186;-66
2022/03/28 10:27:11;;;;;;;12.73;11.48;;;;;;;25.72;31.68;100655.97;5010739;28;20220;-67
2022/03/28 10:29:39;;;;;;;11.48;10.52;;;;;;;26.98;29.79;100660.41;5008069;28;20210;-65
2022/03/28 10:32:20;;;;;;;12.07;10.93;;;;;;;25.50;31.14;100648.78;5000141;28;20313;-66
2022/03/28 10:34:59;;;;;;;17.15;11.43;;;;;;;25.36;31.66;100642.38;4997208;28;20289;-66
2022/03/28 10:37:33;;;;;;;11.88;10.77;;;;;;;23.55;34.10;100645.44;4994685;28;20195;-67
2022/03/28 10:40:21;;;;;;;11.60;10.55;;;;;;;22.49;37.85;100642.59;5008821;28;20182;-66
2022/03/28 10:43:07;;;;;;;11.40;10.15;;;;;;;21.60;38.63;100636.94;4997263;28;20241;-66
2022/03/28 10:45:46;;;;;;;11.82;10.52;;;;;;;21.15;39.26;100634.09;5006128;28;20265;-66
2022/03/28 10:48:11;;;;;;;12.30;11.07;;;;;;;20.87;39.19;100631.38;5012980;28;20263;-67
2022/03/28 10:50:42;;;;;;;12.37;11.17;;;;;;;20.58;40.55;100621.72;5003912;28;20303;-67
2022/03/28 10:53:10;;;;;;;11.70;10.53;;;;;;;20.34;39.34;100620.28;5006074;28;20270;-67
2022/03/28 10:55:50;;;;;;;14.97;11.00;;;;;;;20.24;40.69;100619.44;5014440;28;20273;-65
2022/03/28 10:58:20;;;;;;;13.13;10.50;;;;;;;20.54;41.15;100610.72;4997700;28;20191;-65
2022/03/28 11:01:13;;;;;;;12.27;11.07;;;;;;;20.29;40.52;100604.19;4965704;28;20330;-65
2022/03/28 11:03:42;;;;;;;19.77;17.67;;;;;;;19.78;40.70;100598.97;4994789;28;20222;-67
2022/03/28 11:06:08;;;;;;;12.50;10.97;;;;;;;20.09;40.60;100588.47;5014633;28;20190;-65
2022/03/28 11:08:41;;;;;;;15.63;11.30;;;;;;;20.09;41.33;100591.09;5011516;28;20182;-65
2022/03/28 11:11:21;;;;;;;13.13;10.10;;;;;;;19.68;39.92;100580.66;5001186;28;20281;-66